Time;durP1;ratioP1;P1;durP2;ratioP2;P2;SDS_P1;SDS_P2;PMS_P1;PMS_P2;Temp;Humidity;BMP_temperature;BMP_pressure;BME280_temperature;BME280_humidity;BME280_pressure;Samples;Min_cycle;Max_cycle;Signal;HPM_P1;HPM_P2
2023/05/09 00:00:13;;;;;;;93.32;55.42;;;18.90;81.90;;;;;;4994564;28;95579;-75
2023/05/09 00:02:39;;;;;;;94.00;55.67;;;18.90;81.80;;;;;;4994209;28;95819;-78
2023/05/09 00:05:06;;;;;;;92.63;55.50;;;18.90;81.80;;;;;;4994441;28;94069;-78
2023/05/09 00:07:33;;;;;;;94.03;55.85;;;18.90;81.80;;;;;;4997720;28;94481;-78
2023/05/09 00:09:59;;;;;;;92.82;55.75;;;18.90;81.90;;;;;;4991482;28;96494;-77
2023/05/09 00:12:27;;;;;;;94.55;55.67;;;18.90;81.80;;;;;;4998576;28;94606;-78
2023/05/09 00:14:53;;;;;;;92.88;55.35;;;18.80;81.70;;;;;;4995126;28;95466;-75
2023/05/09 00:17:21;;;;;;;92.75;55.40;;;18.90;81.80;;;;;;5009518;28;93364;-76
2023/05/09 00:19:48;;;;;;;92.75;55.55;;;18.80;81.80;;;;;;4986789;28;95491;-76
2023/05/09 00:22:14;;;;;;;91.40;55.45;;;18.90;81.80;;;;;;5008289;28;95937;-78
2023/05/09 00:24:40;;;;;;;92.20;55.25;;;18.80;81.80;;;;;;5003661;28;97193;-77
2023/05/09 00:27:06;;;;;;;92.30;55.25;;;18.80;81.70;;;;;;4992262;28;94744;-76
2023/05/09 00:29:31;;;;;;;93.78;55.45;;;18.80;81.70;;;;;;4992326;28;95270;-74
2023/05/09 00:31:57;;;;;;;92.65;55.05;;;18.80;81.80;;;;;;4994187;28;93939;-76
2023/05/09 00:34:23;;;;;;;92.18;55.38;;;18.80;81.80;;;;;;4996912;28;94306;-78
2023/05/09 00:36:49;;;;;;;92.50;55.22;;;18.80;81.80;;;;;;4997032;28;93897;-77
2023/05/09 00:39:15;;;;;;;92.07;55.17;;;18.80;81.70;;;;;;4994644;28;95992;-76
2023/05/09 00:41:41;;;;;;;92.63;55.55;;;18.80;81.60;;;;;;4990690;28;95897;-78
2023/05/09 00:44:07;;;;;;;93.18;55.80;;;18.80;81.70;;;;;;4993874;28;94033;-78
2023/05/09 00:46:33;;;;;;;92.30;55.05;;;18.80;81.70;;;;;;4993396;28;94479;-77
2023/05/09 00:48:59;;;;;;;94.38;55.67;;;18.80;81.70;;;;;;4994491;28;96147;-77
2023/05/09 00:51:24;;;;;;;93.68;55.67;;;18.80;81.80;;;;;;4993607;28;94624;-77
2023/05/09 00:53:50;;;;;;;92.72;55.60;;;18.80;81.80;;;;;;4994733;28;94547;-79
2023/05/09 00:56:16;;;;;;;92.93;55.38;;;18.80;81.70;;;;;;4995425;28;94697;-76
2023/05/09 00:58:42;;;;;;;92.35;54.95;;;18.80;81.70;;;;;;4995712;28;94360;-76
2023/05/09 01:01:08;;;;;;;90.95;55.08;;;18.80;81.70;;;;;;5008911;28;94715;-77
2023/05/09 01:03:34;;;;;;;92.88;55.38;;;18.80;81.70;;;;;;4990016;28;95577;-77
2023/05/09 01:06:38;;;;;;;94.18;55.42;;;18.80;81.80;;;;;;4990189;28;94036;-78
2023/05/09 01:09:39;;;;;;;90.50;54.78;;;18.70;81.60;;;;;;4991001;28;94865;-77
2023/05/09 01:12:24;;;;;;;91.63;55.33;;;18.70;81.70;;;;;;4939337;28;95381;-78
2023/05/09 01:15:07;;;;;;;91.55;54.72;;;18.70;82.40;;;;;;4987181;28;96505;-77
2023/05/09 01:17:52;;;;;;;91.22;54.85;;;18.70;81.70;;;;;;4996503;28;94051;-79
2023/05/09 01:20:30;;;;;;;90.63;54.78;;;18.70;81.70;;;;;;4996291;28;95112;-78
2023/05/09 01:23:29;;;;;;;91.88;54.88;;;18.70;81.70;;;;;;5002772;28;95305;-75
2023/05/09 01:26:05;;;;;;;91.45;55.05;;;18.70;81.70;;;;;;4988334;28;95338;-78
2023/05/09 01:28:34;;;;;;;92.38;54.97;;;18.70;81.60;;;;;;4994277;28;95043;-78
2023/05/09 01:31:00;;;;;;;91.43;54.88;;;18.70;81.70;;;;;;4995040;28;95000;-79
2023/05/09 01:33:30;;;;;;;91.53;55.03;;;18.70;81.70;;;;;;4986912;28;96617;-75
2023/05/09 01:36:02;;;;;;;91.35;54.95;;;18.70;81.60;;;;;;4992688;28;94542;-76
2023/05/09 01:38:29;;;;;;;;;;;18.70;81.60;;;;;;4992783;28;94390;-79
2023/05/09 01:40:57;;;;;;;93.60;55.20;;;18.70;81.60;;;;;;5007613;28;97922;-78
2023/05/09 01:43:27;;;;;;;90.75;54.60;;;18.70;81.70;;;;;;4992463;28;96223;-76
2023/05/09 01:45:54;;;;;;;90.57;54.70;;;18.70;81.60;;;;;;4994546;28;94544;-79
2023/05/09 01:48:25;;;;;;;91.45;54.88;;;18.60;81.50;;;;;;4994265;28;94414;-78
2023/05/09 01:50:53;;;;;;;91.55;55.00;;;18.60;81.60;;;;;;4991262;28;94403;-76
2023/05/09 01:53:20;;;;;;;91.65;54.65;;;18.70;81.60;;;;;;4993824;28;95997;-77
2023/05/09 01:55:48;;;;;;;92.22;55.05;;;18.60;81.50;;;;;;4989996;28;94106;-76
2023/05/09 01:58:17;;;;;;;93.50;55.00;;;18.60;81.60;;;;;;4991251;28;93976;-78
2023/05/09 02:00:44;;;;;;;91.90;55.05;;;18.60;81.60;;;;;;4991485;28;95549;-76
2023/05/09 02:03:10;;;;;;;90.78;54.83;;;18.60;81.60;;;;;;4992311;28;95382;-77
2023/05/09 02:05:36;;;;;;;91.63;54.90;;;18.60;81.50;;;;;;4991256;28;95729;-76
2023/05/09 02:08:02;;;;;;;90.38;54.85;;;18.60;81.50;;;;;;4995507;28;93867;-77
2023/05/09 02:10:28;;;;;;;91.05;54.85;;;18.60;81.60;;;;;;4986038;28;94636;-78
2023/05/09 02:12:55;;;;;;;90.80;54.47;;;18.60;81.50;;;;;;4985071;28;95459;-77
2023/05/09 02:15:21;;;;;;;91.32;55.08;;;18.60;81.60;;;;;;4996739;28;94760;-75
2023/05/09 02:17:47;;;;;;;91.22;54.90;;;18.60;81.60;;;;;;4987343;28;95030;-77
2023/05/09 02:20:13;;;;;;;90.18;54.95;;;18.60;81.60;;;;;;4984058;28;96996;-76
2023/05/09 02:22:42;;;;;;;91.00;54.90;;;18.60;81.60;;;;;;4991583;28;94813;-75
2023/05/09 02:25:10;;;;;;;91.53;54.83;;;18.60;81.60;;;;;;4992232;28;98879;-75
2023/05/09 02:27:38;;;;;;;90.20;54.67;;;18.60;81.60;;;;;;4996198;28;95067;-76
2023/05/09 02:30:09;;;;;;;90.38;54.80;;;18.60;81.60;;;;;;4986431;28;97134;-76
2023/05/09 02:32:37;;;;;;;;;;;18.60;81.60;;;;;;4979401;28;99203;-75
2023/05/09 02:35:05;;;;;;;90.35;54.60;;;18.60;81.60;;;;;;4978935;28;94938;-78
2023/05/09 02:37:32;;;;;;;90.70;54.72;;;18.60;81.60;;;;;;4975994;28;94629;-76
2023/05/09 02:39:58;;;;;;;90.78;54.97;;;18.60;81.60;;;;;;4975244;28;95658;-76
2023/05/09 02:42:25;;;;;;;89.90;54.45;;;18.60;81.60;;;;;;4989134;28;95770;-73
2023/05/09 02:44:52;;;;;;;89.90;54.47;;;18.60;81.60;;;;;;4981316;28;94725;-77
2023/05/09 02:47:18;;;;;;;90.20;54.58;;;18.60;81.60;;;;;;4995512;28;94230;-75
2023/05/09 02:49:44;;;;;;;91.15;54.60;;;18.50;81.50;;;;;;4981784;28;95567;-77
2023/05/09 02:52:10;;;;;;;90.40;54.63;;;18.60;81.60;;;;;;4975177;28;95065;-75
2023/05/09 02:54:36;;;;;;;91.93;54.75;;;18.60;81.70;;;;;;4978731;28;96708;-75
2023/05/09 02:57:02;;;;;;;89.72;54.33;;;18.60;81.50;;;;;;4975552;28;99080;-75
2023/05/09 02:59:28;;;;;;;90.15;54.75;;;18.50;81.50;;;;;;4971132;28;95632;-77
2023/05/09 03:01:53;;;;;;;90.45;54.83;;;18.60;81.60;;;;;;4981063;28;94987;-75
2023/05/09 03:04:19;;;;;;;90.00;54.63;;;18.50;81.60;;;;;;4976227;28;95363;-75
2023/05/09 03:06:45;;;;;;;90.55;54.90;;;18.50;81.50;;;;;;4978347;28;94667;-76
2023/05/09 03:09:10;;;;;;;91.72;54.78;;;18.50;81.50;;;;;;4975510;28;97202;-77
2023/05/09 03:11:36;;;;;;;90.45;54.42;;;18.50;81.50;;;;;;4967438;28;94721;-74
2023/05/09 03:14:02;;;;;;;90.20;54.63;;;18.50;81.60;;;;;;4975590;28;95586;-77
2023/05/09 03:16:28;;;;;;;89.80;54.65;;;18.50;81.50;;;;;;4978881;28;95620;-75
2023/05/09 03:18:54;;;;;;;90.18;54.63;;;18.50;81.50;;;;;;4970322;28;96012;-77
2023/05/09 03:21:20;;;;;;;90.75;54.45;;;18.50;81.50;;;;;;4975117;28;96170;-75
2023/05/09 03:23:45;;;;;;;88.85;53.97;;;18.50;81.50;;;;;;4975783;28;99126;-75
2023/05/09 03:26:11;;;;;;;90.03;54.05;;;18.50;81.50;;;;;;4992604;28;95966;-77
2023/05/09 03:28:37;;;;;;;89.85;54.58;;;18.50;81.50;;;;;;4982234;28;94503;-75
2023/05/09 03:31:03;;;;;;;89.93;54.72;;;18.50;81.50;;;;;;4981890;28;96287;-75
2023/05/09 03:33:29;;;;;;;89.50;54.55;;;18.50;81.50;;;;;;4981954;28;95983;-77
2023/05/09 03:35:57;;;;;;;90.45;54.65;;;18.40;81.40;;;;;;4991216;28;94019;-78
2023/05/09 03:38:23;;;;;;;89.15;54.17;;;18.50;81.50;;;;;;4993086;28;95322;-78
2023/05/09 03:40:53;;;;;;;89.78;54.15;;;18.50;81.50;;;;;;4990011;28;96448;-77
2023/05/09 03:43:18;;;;;;;89.70;54.53;;;18.50;81.60;;;;;;4992660;28;95139;-75
2023/05/09 03:45:44;;;;;;;91.07;54.80;;;18.50;81.50;;;;;;5008925;28;94077;-75
2023/05/09 03:48:10;;;;;;;90.18;54.67;;;18.50;81.50;;;;;;4991788;28;94536;-77
2023/05/09 03:50:36;;;;;;;90.80;54.70;;;18.40;81.50;;;;;;4994759;28;94638;-75
2023/05/09 03:53:02;;;;;;;90.43;55.03;;;18.50;81.50;;;;;;4995534;28;94638;-75
2023/05/09 03:55:28;;;;;;;89.53;54.28;;;18.50;81.60;;;;;;4998081;28;94373;-76
2023/05/09 03:57:54;;;;;;;90.47;54.60;;;18.50;81.50;;;;;;4993504;28;94817;-78
2023/05/09 04:00:21;;;;;;;89.82;54.45;;;18.40;81.50;;;;;;4987464;28;94148;-77
2023/05/09 04:02:49;;;;;;;89.53;54.45;;;18.40;81.50;;;;;;4978984;28;94268;-77
2023/05/09 04:05:15;;;;;;;89.32;54.60;;;18.50;81.60;;;;;;4986080;28;95291;-77
2023/05/09 04:07:41;;;;;;;89.32;53.88;;;18.40;81.50;;;;;;4993313;28;96132;-76
2023/05/09 04:10:08;;;;;;;89.78;54.67;;;18.40;81.50;;;;;;4989880;28;95204;-75
2023/05/09 04:12:33;;;;;;;89.78;54.58;;;18.40;81.50;;;;;;4990986;28;99272;-78
2023/05/09 04:14:59;;;;;;;90.85;54.80;;;18.40;81.50;;;;;;4994647;28;94370;-75
2023/05/09 04:17:25;;;;;;;89.07;54.15;;;18.40;81.50;;;;;;4980270;28;95442;-78
2023/05/09 04:19:51;;;;;;;90.00;54.45;;;18.40;81.40;;;;;;4980098;28;95701;-78
2023/05/09 04:22:16;;;;;;;91.28;54.42;;;18.40;81.50;;;;;;4994234;28;94248;-77
2023/05/09 04:24:42;;;;;;;89.88;54.72;;;18.40;81.40;;;;;;4987571;28;93610;-77
2023/05/09 04:27:08;;;;;;;92.07;54.83;;;18.40;81.20;;;;;;4994474;28;94505;-78
2023/05/09 04:29:34;;;;;;;92.70;54.90;;;18.40;81.20;;;;;;4990763;28;94610;-76
2023/05/09 04:32:00;;;;;;;90.82;54.78;;;18.40;81.30;;;;;;5009543;28;96530;-78
2023/05/09 04:34:28;;;;;;;91.00;55.03;;;18.40;81.30;;;;;;4990757;28;93936;-77
2023/05/09 04:36:54;;;;;;;92.40;54.97;;;18.40;81.30;;;;;;4985920;28;95083;-75
2023/05/09 04:39:19;;;;;;;90.85;54.65;;;18.40;81.40;;;;;;4986868;28;94598;-75
2023/05/09 04:41:46;;;;;;;91.63;54.85;;;18.40;81.40;;;;;;4988281;28;100304;-77
2023/05/09 04:44:12;;;;;;;91.70;54.83;;;18.40;81.30;;;;;;4988542;28;95053;-76
2023/05/09 04:46:39;;;;;;;90.78;54.53;;;18.40;81.30;;;;;;4985968;28;94695;-75
2023/05/09 04:49:04;;;;;;;92.07;54.78;;;18.40;81.40;;;;;;4986493;28;93949;-77
2023/05/09 04:51:30;;;;;;;89.78;54.55;;;18.40;81.50;;;;;;4985762;28;94924;-75
2023/05/09 04:53:56;;;;;;;90.40;55.03;;;18.40;81.40;;;;;;5007469;28;94164;-76
2023/05/09 04:56:21;;;;;;;90.50;54.63;;;18.40;81.50;;;;;;4983579;28;100919;-77
2023/05/09 04:58:47;;;;;;;91.00;54.58;;;18.40;81.50;;;;;;4988032;28;95014;-74
2023/05/09 05:01:13;;;;;;;89.97;54.65;;;18.30;81.50;;;;;;4989833;28;94439;-76
2023/05/09 05:03:39;;;;;;;88.47;54.05;;;18.40;81.50;;;;;;4979216;28;94757;-70
2023/05/09 05:06:05;;;;;;;89.57;54.25;;;18.40;81.50;;;;;;4978130;28;95058;-77
2023/05/09 05:08:31;;;;;;;89.45;53.92;;;18.40;81.50;;;;;;4975953;28;94426;-74
2023/05/09 05:10:56;;;;;;;90.20;54.38;;;18.30;81.50;;;;;;4975962;28;94741;-78
2023/05/09 05:13:22;;;;;;;91.75;54.35;;;18.40;81.50;;;;;;4982720;28;93301;-78
2023/05/09 05:15:48;;;;;;;89.20;54.42;;;18.40;81.50;;;;;;4978648;28;94268;-78
2023/05/09 05:18:14;;;;;;;90.82;54.13;;;18.30;81.40;;;;;;4982413;28;94487;-73
2023/05/09 05:20:40;;;;;;;90.05;54.40;;;18.40;81.50;;;;;;4975880;28;96616;-79
2023/05/09 05:23:06;;;;;;;88.95;54.50;;;18.40;81.60;;;;;;4971801;28;94502;-77
2023/05/09 05:25:32;;;;;;;90.43;54.25;;;18.40;81.60;;;;;;4979966;28;94042;-78
2023/05/09 05:27:58;;;;;;;93.35;54.75;;;18.40;81.70;;;;;;4980572;28;94243;-79
2023/05/09 05:30:23;;;;;;;89.43;54.50;;;18.40;81.70;;;;;;4979274;28;95341;-79
2023/05/09 05:32:49;;;;;;;90.30;54.33;;;18.40;81.70;;;;;;4976082;28;94550;-74
2023/05/09 05:35:15;;;;;;;89.43;54.30;;;18.40;81.80;;;;;;4979813;28;96285;-78
2023/05/09 05:37:41;;;;;;;89.43;54.30;;;18.40;81.90;;;;;;4977076;28;94009;-79
2023/05/09 05:40:07;;;;;;;89.60;54.35;;;18.40;81.80;;;;;;4976249;28;94457;-77
2023/05/09 05:42:33;;;;;;;90.10;54.22;;;18.40;81.80;;;;;;4976977;28;94784;-79
2023/05/09 05:45:03;;;;;;;89.65;54.63;;;18.40;81.80;;;;;;4979960;28;95148;-78
2023/05/09 05:47:37;;;;;;;89.35;54.08;;;18.40;81.80;;;;;;4979781;28;95864;-78
2023/05/09 05:50:05;;;;;;;91.65;54.22;;;18.30;81.80;;;;;;4972042;28;94549;-79
2023/05/09 05:52:31;;;;;;;88.80;53.95;;;18.40;81.80;;;;;;4981718;28;97817;-79
2023/05/09 05:54:57;;;;;;;88.40;53.80;;;18.40;81.70;;;;;;4980434;28;94472;-78
2023/05/09 05:57:23;;;;;;;89.80;54.13;;;18.30;81.70;;;;;;4996835;28;94060;-78
2023/05/09 05:59:50;;;;;;;89.90;54.53;;;18.30;81.60;;;;;;4981341;28;94514;-76
2023/05/09 06:02:16;;;;;;;90.05;54.55;;;18.40;81.70;;;;;;4978100;28;94320;-77
2023/05/09 06:04:42;;;;;;;88.57;53.90;;;18.40;81.70;;;;;;4974747;28;96036;-76
2023/05/09 06:07:08;;;;;;;91.07;54.08;;;18.30;81.60;;;;;;4974902;28;94598;-79
2023/05/09 06:09:34;;;;;;;89.75;54.35;;;18.30;81.60;;;;;;4984176;28;96616;-75
2023/05/09 06:12:00;;;;;;;90.50;54.15;;;18.40;81.60;;;;;;4976929;28;94081;-77
2023/05/09 06:14:25;;;;;;;89.90;54.47;;;18.30;81.60;;;;;;4973922;28;94744;-74
2023/05/09 06:16:52;;;;;;;88.82;54.15;;;18.30;81.50;;;;;;4973484;28;95642;-77
2023/05/09 06:19:18;;;;;;;89.13;54.33;;;18.30;81.60;;;;;;4975553;28;94670;-75
2023/05/09 06:21:43;;;;;;;89.45;54.22;;;18.30;81.50;;;;;;4973906;28;95637;-76
2023/05/09 06:24:09;;;;;;;89.13;54.10;;;18.30;81.50;;;;;;4976697;28;96179;-79
2023/05/09 06:26:35;;;;;;;88.82;53.97;;;18.40;81.50;;;;;;4987311;28;96813;-76
2023/05/09 06:29:01;;;;;;;89.28;54.20;;;18.30;81.40;;;;;;4983026;28;99264;-75
2023/05/09 06:31:27;;;;;;;89.63;54.25;;;18.40;81.50;;;;;;4985397;28;94852;-75
2023/05/09 06:33:53;;;;;;;89.28;53.95;;;18.30;81.40;;;;;;4976788;28;95656;-74
2023/05/09 06:36:18;;;;;;;91.38;54.28;;;18.30;81.40;;;;;;4972438;28;99380;-80
2023/05/09 06:38:44;;;;;;;89.70;54.13;;;18.40;81.30;;;;;;4983713;28;95801;-81
2023/05/09 06:41:10;;;;;;;89.40;54.20;;;18.30;81.30;;;;;;4984460;28;95244;-76
2023/05/09 06:43:35;;;;;;;90.13;54.22;;;18.30;81.30;;;;;;4987854;28;95172;-75
2023/05/09 06:46:01;;;;;;;88.88;53.70;;;18.30;81.20;;;;;;4985373;28;95069;-78
2023/05/09 06:48:27;;;;;;;90.45;54.22;;;18.30;81.30;;;;;;4979508;28;94356;-80
2023/05/09 06:50:52;;;;;;;89.35;54.08;;;18.30;81.30;;;;;;4979769;28;93946;-80
2023/05/09 06:53:18;;;;;;;89.40;53.85;;;18.40;81.30;;;;;;4981693;28;94905;-78
2023/05/09 06:55:44;;;;;;;89.47;54.47;;;18.40;81.40;;;;;;4984444;28;95291;-80
2023/05/09 06:58:10;;;;;;;88.75;53.70;;;18.30;81.30;;;;;;4983077;28;95872;-79
2023/05/09 07:00:36;;;;;;;89.55;54.13;;;18.30;81.30;;;;;;4982267;28;96093;-76
2023/05/09 07:03:02;;;;;;;88.43;53.92;;;18.30;81.30;;;;;;4996570;28;96479;-79
2023/05/09 07:05:28;;;;;;;90.60;54.25;;;18.30;81.30;;;;;;4984055;28;94561;-75
2023/05/09 07:07:54;;;;;;;89.38;53.95;;;18.30;81.30;;;;;;4988738;28;94296;-77
2023/05/09 07:10:21;;;;;;;89.05;53.63;;;18.30;81.40;;;;;;4982891;28;94381;-79
2023/05/09 07:12:46;;;;;;;89.55;54.00;;;18.30;81.40;;;;;;4986839;28;94503;-80
2023/05/09 07:15:12;;;;;;;91.13;54.17;;;18.30;81.30;;;;;;4977895;28;94126;-79
2023/05/09 07:17:38;;;;;;;90.28;54.53;;;18.30;81.30;;;;;;4982686;28;94362;-81
2023/05/09 07:20:04;;;;;;;90.22;54.55;;;18.40;81.50;;;;;;4983249;28;94519;-80
2023/05/09 07:22:30;;;;;;;89.32;54.05;;;18.30;81.30;;;;;;4983982;28;96210;-79
2023/05/09 07:24:56;;;;;;;89.88;54.15;;;18.30;81.30;;;;;;4984713;28;95516;-76
2023/05/09 07:27:21;;;;;;;90.40;54.33;;;18.40;81.40;;;;;;4981927;28;93973;-81
2023/05/09 07:29:50;;;;;;;89.75;54.03;;;18.30;81.40;;;;;;4983000;28;94242;-78
2023/05/09 07:32:15;;;;;;;91.45;54.35;;;18.30;81.40;;;;;;4985382;28;94333;-78
2023/05/09 07:34:41;;;;;;;89.85;54.33;;;18.30;81.50;;;;;;4982960;28;94582;-76
2023/05/09 07:37:07;;;;;;;88.93;54.05;;;18.30;81.50;;;;;;4975111;28;94269;-79
2023/05/09 07:39:32;;;;;;;90.20;53.95;;;18.30;81.50;;;;;;4978127;28;93783;-78
2023/05/09 07:41:58;;;;;;;89.60;54.17;;;18.30;81.50;;;;;;4993304;28;99331;-78
2023/05/09 07:44:24;;;;;;;89.00;54.03;;;18.30;81.50;;;;;;4978240;28;95993;-77
2023/05/09 07:46:49;;;;;;;90.38;54.55;;;18.30;81.30;;;;;;4978425;28;95251;-78
2023/05/09 07:49:15;;;;;;;88.90;53.83;;;18.30;81.40;;;;;;4981026;28;94674;-77
2023/05/09 07:51:41;;;;;;;91.32;53.75;;;18.30;81.50;;;;;;4982293;28;94529;-78
2023/05/09 07:54:08;;;;;;;89.82;54.25;;;18.30;81.50;;;;;;4977394;28;95039;-79
2023/05/09 07:56:34;;;;;;;90.20;53.95;;;18.30;81.50;;;;;;4980665;28;94716;-78
2023/05/09 07:59:00;;;;;;;88.38;53.58;;;18.30;81.60;;;;;;4981381;28;94321;-78
2023/05/09 08:01:26;;;;;;;88.13;53.80;;;18.30;81.60;;;;;;4977225;28;94752;-77
2023/05/09 08:03:52;;;;;;;90.25;54.30;;;18.30;81.70;;;;;;4982591;28;93835;-78
2023/05/09 08:06:17;;;;;;;90.88;53.92;;;18.40;81.80;;;;;;4980556;28;95820;-78
2023/05/09 08:08:43;;;;;;;89.28;54.00;;;18.30;81.80;;;;;;4995750;28;94469;-78
2023/05/09 08:11:09;;;;;;;88.30;53.75;;;18.30;81.90;;;;;;4979591;28;95950;-77
2023/05/09 08:13:35;;;;;;;90.10;53.72;;;18.30;81.90;;;;;;4981704;28;95166;-78
2023/05/09 08:16:01;;;;;;;89.55;54.35;;;18.30;81.80;;;;;;4983737;28;93940;-79
2023/05/09 08:18:26;;;;;;;88.63;53.90;;;18.30;81.80;;;;;;4984961;28;94085;-79
2023/05/09 08:20:52;;;;;;;88.68;53.78;;;18.30;81.80;;;;;;4981249;28;94720;-77
2023/05/09 08:23:18;;;;;;;88.75;53.88;;;18.30;81.60;;;;;;4979560;28;94375;-79
2023/05/09 08:25:43;;;;;;;88.78;53.50;;;18.30;81.70;;;;;;4998655;28;94584;-76
2023/05/09 08:28:09;;;;;;;88.75;53.63;;;18.30;81.80;;;;;;4985792;28;93574;-77
2023/05/09 08:30:35;;;;;;;88.13;53.60;;;18.30;81.80;;;;;;4981931;28;94429;-78
2023/05/09 08:33:01;;;;;;;88.65;53.75;;;18.30;81.70;;;;;;4977814;28;94893;-78
2023/05/09 08:35:26;;;;;;;89.68;53.67;;;18.30;81.70;;;;;;4982587;28;95444;-77
2023/05/09 08:37:52;;;;;;;90.82;53.92;;;18.30;81.60;;;;;;4984456;28;94282;-78
2023/05/09 08:40:18;;;;;;;88.47;53.72;;;18.30;81.60;;;;;;4986106;28;94859;-77
2023/05/09 08:42:44;;;;;;;88.95;53.92;;;18.30;81.50;;;;;;5013602;28;96809;-76
2023/05/09 08:45:13;;;;;;;93.82;54.28;;;18.40;81.40;;;;;;4997966;28;94463;-75
2023/05/09 08:47:41;;;;;;;95.90;54.03;;;18.40;81.40;;;;;;5003298;28;94277;-76
2023/05/09 08:50:10;;;;;;;90.00;53.72;;;18.30;81.40;;;;;;4999616;28;97281;-75
2023/05/09 08:52:36;;;;;;;89.20;53.95;;;18.30;81.50;;;;;;5003689;28;94964;-76
2023/05/09 08:55:06;;;;;;;89.45;54.55;;;18.30;81.50;;;;;;5003324;28;97467;-76
2023/05/09 08:57:35;;;;;;;91.28;54.08;;;18.30;81.50;;;;;;4995843;28;94495;-76
2023/05/09 09:00:05;;;;;;;90.45;54.33;;;18.30;81.50;;;;;;4981485;28;102764;-79
2023/05/09 09:02:32;;;;;;;89.32;54.30;;;18.30;81.50;;;;;;4988710;28;95397;-77
2023/05/09 09:04:57;;;;;;;89.43;54.38;;;18.30;81.50;;;;;;4988330;28;94211;-79
2023/05/09 09:07:26;;;;;;;90.07;54.67;;;18.30;81.50;;;;;;4986353;28;94158;-79
2023/05/09 09:09:53;;;;;;;88.20;53.83;;;18.30;81.60;;;;;;4985834;28;95292;-78
2023/05/09 09:12:22;;;;;;;89.28;54.22;;;18.30;81.50;;;;;;4986941;28;95367;-79
2023/05/09 09:14:51;;;;;;;90.47;54.00;;;18.30;81.60;;;;;;4986937;28;95772;-79
2023/05/09 09:17:23;;;;;;;89.65;54.25;;;18.30;81.60;;;;;;4987020;28;93535;-79
2023/05/09 09:19:51;;;;;;;89.18;54.10;;;18.30;81.60;;;;;;4984336;28;97278;-78
2023/05/09 09:22:19;;;;;;;89.28;54.22;;;18.30;81.50;;;;;;4987205;28;95386;-77
2023/05/09 09:24:45;;;;;;;89.75;54.13;;;18.30;81.50;;;;;;4980478;28;95746;-79
2023/05/09 09:27:10;;;;;;;89.70;54.33;;;18.30;81.60;;;;;;4985753;28;94388;-79
2023/05/09 09:29:37;;;;;;;90.05;54.35;;;18.30;81.60;;;;;;4997502;28;95552;-79
2023/05/09 09:32:05;;;;;;;89.07;53.75;;;18.30;81.40;;;;;;4984907;28;94858;-77
2023/05/09 09:34:31;;;;;;;89.13;54.00;;;18.30;81.50;;;;;;4985114;28;94376;-78
2023/05/09 09:36:57;;;;;;;88.72;53.75;;;18.30;81.40;;;;;;4987397;28;94285;-76
2023/05/09 09:39:23;;;;;;;89.28;53.90;;;18.30;81.40;;;;;;4981799;28;95724;-79
2023/05/09 09:41:49;;;;;;;89.18;54.20;;;18.30;81.30;;;;;;4985588;28;94349;-79
2023/05/09 09:44:16;;;;;;;89.28;54.00;;;18.30;81.30;;;;;;4985070;28;94386;-78
2023/05/09 09:46:46;;;;;;;88.22;53.60;;;18.30;81.40;;;;;;4985383;28;94357;-79
2023/05/09 09:49:12;;;;;;;90.70;54.17;;;18.30;81.30;;;;;;4981072;28;95591;-79
2023/05/09 09:51:39;;;;;;;88.97;54.03;;;18.30;81.30;;;;;;4981794;28;96396;-79
2023/05/09 09:54:09;;;;;;;89.38;53.53;;;18.30;81.30;;;;;;4982830;28;94189;-79
2023/05/09 09:56:53;;;;;;;88.50;53.58;;;18.30;81.30;;;;;;4981674;28;95392;-76
2023/05/09 09:59:22;;;;;;;88.75;53.88;;;18.30;81.30;;;;;;4986727;28;94708;-80
2023/05/09 10:02:00;;;;;;;89.45;53.95;;;18.30;81.30;;;;;;4979563;28;96162;-79
2023/05/09 10:04:31;;;;;;;89.53;53.92;;;18.30;81.50;;;;;;4983101;28;94197;-77
2023/05/09 10:06:58;;;;;;;89.20;54.13;;;18.30;81.20;;;;;;4984874;28;93706;-80
2023/05/09 10:09:26;;;;;;;88.40;53.85;;;18.30;81.30;;;;;;4982303;28;96833;-77
2023/05/09 10:11:53;;;;;;;88.85;53.80;;;18.30;81.20;;;;;;4982641;28;95527;-76
2023/05/09 10:14:20;;;;;;;88.13;53.67;;;18.30;81.10;;;;;;4983423;28;96557;-79
2023/05/09 10:16:51;;;;;;;88.80;53.53;;;18.30;81.10;;;;;;4976853;28;95400;-79
2023/05/09 10:19:19;;;;;;;88.25;53.60;;;18.30;81.10;;;;;;4977769;28;96635;-78
2023/05/09 10:21:56;;;;;;;88.60;53.55;;;18.30;81.10;;;;;;4977548;28;94464;-75
2023/05/09 10:24:58;;;;;;;88.60;53.85;;;18.30;81.10;;;;;;4977350;28;94936;-76
2023/05/09 10:27:27;;;;;;;87.88;53.28;;;18.30;81.00;;;;;;4995631;28;94444;-78
2023/05/09 10:30:06;;;;;;;88.47;53.90;;;18.30;80.90;;;;;;4995707;28;96856;-75
2023/05/09 10:32:58;;;;;;;88.15;53.63;;;18.30;81.00;;;;;;4981633;28;93917;-77
2023/05/09 10:35:31;;;;;;;87.97;53.42;;;18.30;81.10;;;;;;4981255;28;94677;-78
2023/05/09 10:37:58;;;;;;;93.15;53.60;;;18.30;81.00;;;;;;4978644;28;95001;-78
2023/05/09 10:40:25;;;;;;;88.85;53.90;;;18.30;80.90;;;;;;4993067;28;95402;-79
2023/05/09 10:42:51;;;;;;;88.15;53.42;;;18.30;80.90;;;;;;4978202;28;96601;-79
2023/05/09 10:45:18;;;;;;;88.03;53.22;;;18.30;80.70;;;;;;4979375;28;94155;-77
2023/05/09 10:47:46;;;;;;;88.55;53.60;;;18.30;80.70;;;;;;4975102;28;95452;-79
2023/05/09 10:50:12;;;;;;;88.93;53.33;;;18.30;80.70;;;;;;4979823;28;95770;-79
2023/05/09 10:53:02;;;;;;;88.85;53.67;;;18.30;80.70;;;;;;4977250;28;94477;-78
2023/05/09 10:55:46;;;;;;;89.17;53.33;;;18.30;80.80;;;;;;4974777;28;95067;-79
2023/05/09 10:58:25;;;;;;;87.70;53.03;;;18.30;80.80;;;;;;4981051;28;93866;-79
2023/05/09 11:00:53;;;;;;;89.43;53.42;;;18.30;80.90;;;;;;4975062;28;94829;-79
2023/05/09 11:03:19;;;;;;;88.43;53.78;;;18.30;80.80;;;;;;4976096;28;95003;-80
2023/05/09 11:05:51;;;;;;;88.22;53.47;;;18.30;80.90;;;;;;4973815;28;95306;-78
2023/05/09 11:08:24;;;;;;;88.43;53.45;;;18.30;80.90;;;;;;4981964;28;94127;-79
2023/05/09 11:10:50;;;;;;;88.30;53.28;;;18.30;80.90;;;;;;4975306;28;94767;-79
2023/05/09 11:13:25;;;;;;;88.70;53.28;;;18.30;80.90;;;;;;4977700;28;97704;-79
2023/05/09 11:16:00;;;;;;;88.15;53.33;;;18.30;80.90;;;;;;4978242;28;94661;-79
2023/05/09 11:18:30;;;;;;;87.90;53.35;;;18.30;80.90;;;;;;4973398;28;96854;-79
2023/05/09 11:20:55;;;;;;;87.90;53.28;;;18.30;80.90;;;;;;4976452;28;95247;-78
2023/05/09 11:23:25;;;;;;;89.22;53.67;;;18.30;80.90;;;;;;4979218;28;95244;-80
2023/05/09 11:25:51;;;;;;;89.00;53.63;;;18.30;81.60;;;;;;4977674;28;94526;-80
2023/05/09 11:28:28;;;;;;;89.05;53.55;;;18.30;81.00;;;;;;4981011;28;94334;-79
2023/05/09 11:31:07;;;;;;;88.85;53.35;;;18.30;81.20;;;;;;4976396;28;95648;-81
2023/05/09 11:33:35;;;;;;;88.43;53.55;;;18.30;81.00;;;;;;4972786;28;96466;-78
2023/05/09 11:36:28;;;;;;;88.35;53.42;;;18.30;81.00;;;;;;4975822;28;94479;-77
2023/05/09 11:39:08;;;;;;;88.07;53.45;;;18.30;81.00;;;;;;4979895;28;94681;-80
2023/05/09 11:41:44;;;;;;;87.78;53.20;;;18.40;81.20;;;;;;4980141;28;94812;-79
2023/05/09 11:44:20;;;;;;;88.13;53.28;;;18.30;81.20;;;;;;4981836;28;95473;-78
2023/05/09 11:46:47;;;;;;;88.78;53.42;;;18.30;81.20;;;;;;4981224;28;94956;-79
2023/05/09 11:49:14;;;;;;;89.55;53.28;;;18.30;81.20;;;;;;4984720;28;93551;-77
2023/05/09 11:51:40;;;;;;;88.65;53.42;;;18.30;81.20;;;;;;4977246;28;94774;-78
2023/05/09 11:54:06;;;;;;;88.22;53.33;;;18.30;81.20;;;;;;4980600;28;94817;-78
2023/05/09 11:56:38;;;;;;;88.45;53.15;;;18.30;81.20;;;;;;4976380;28;95750;-79
2023/05/09 11:59:05;;;;;;;87.97;53.15;;;18.40;81.30;;;;;;4980684;28;95130;-80
2023/05/09 12:01:31;;;;;;;89.13;53.47;;;18.30;81.30;;;;;;4979970;28;95290;-78
2023/05/09 12:03:57;;;;;;;87.55;53.17;;;18.30;81.30;;;;;;4980995;28;99176;-78
2023/05/09 12:06:25;;;;;;;87.63;53.28;;;18.30;81.20;;;;;;4978813;28;95459;-80
2023/05/09 12:08:51;;;;;;;87.97;53.35;;;18.30;81.30;;;;;;4982474;28;94434;-76
2023/05/09 12:11:17;;;;;;;87.72;53.13;;;18.30;81.30;;;;;;4978621;28;94927;-79
2023/05/09 12:13:49;;;;;;;88.13;53.30;;;18.30;81.20;;;;;;4979663;28;95626;-76
2023/05/09 12:16:16;;;;;;;88.25;53.33;;;18.30;81.80;;;;;;4981610;28;95888;-79
2023/05/09 12:18:46;;;;;;;88.40;53.30;;;18.30;81.10;;;;;;4981200;28;94691;-79
2023/05/09 12:21:11;;;;;;;87.75;52.97;;;18.30;81.10;;;;;;4972412;28;98294;-78
2023/05/09 12:23:37;;;;;;;87.90;53.35;;;18.30;81.20;;;;;;4978318;28;94678;-80
2023/05/09 12:26:03;;;;;;;88.03;53.17;;;18.30;81.10;;;;;;4976058;28;94878;-78
2023/05/09 12:28:29;;;;;;;87.65;53.20;;;18.30;81.10;;;;;;4983490;28;95250;-80
2023/05/09 12:30:55;;;;;;;87.82;53.13;;;18.30;81.10;;;;;;4979611;28;94764;-80